首页
METAR-TAF:

METAR-TAF

机场 :

隆吉國際機場

弗里敦, 塞拉利昂

纬度: 08-37N, 经度: 013-12W, 海拔: 25米

当前天气观测

该预报发布于1小时和9分钟前的19:00 UTC
风速8节,风向西
温度 29°C
湿度 70%
气压 1009 hPa
能见度10公里或以上
多云层高于1200英尺
少量云层高于2700英尺, 积雨云.

METAR: GFLL 071900Z 27008KT 9999 BKN012 FEW027CB 29/23 Q1009 RMK CB-NSW

时间: 20:09 (20:09 UTC)


TAF: 丢失

超过4000个机场的气象观测和天气预报(METAR&TAF报告)。

可查询的气象台以黄色和红色小点在地图上表示。

将鼠标移到小点上方,可查看气象台名称。

然后点击查看天气观测和预报。

如需切换地图:点击带黑十字的绿色按钮放大地图;点击带横线的绿色按钮缩小地图;或者点击绿色箭头查看邻近地区的地图。


METAR-TAF: